Offutt Air Force Base Omaha US
ICAO: KOFF
IATA: OFF
Category: Medium
Scheduled Services: No

Elevation: 1052 ft
TransAlt. 18000 ft.

Airport Communications:
OMAHA APP/DEP:118
ATIS:126.025
GND:121.7
PMSV METRO:22.74
COMD POST:31.1
PTD:37.94
TWR:123.7

KOFF Zoom In..

Runways:

(A) RW 12 length 11702 ft width 150 ft
ILS 111.70 / hdg 124

(B) RW 30 length 11702 ft width 150 ft
ILS 109.50 / hdg 304

Location; KOFF
Day. 13 / Time. 12.56 Zulu
* Altimeter: 29.92
* Temperature: 22° c. 71.6°f.
* Wind from: 140° Speed 07 kn.
Dewpoint: 18° c.
Visibility: 10 Statute Miles.
Clouds: Clear (automated report).

KOFF 131256Z AUTO 14007KT 10SM CLR 22/18 A2992 RMK AO2 SLP129 T02190183 $

Going to: --> -->


Wind From 140°
Speed 07 kn.

 
 
jpsmedia worldairports.se 2020   terms of use